Flight Track Log - Related Links

Times and Time Zones

All times are in EDT time to prevent confusion due to time zone crossing. See the RPA3159 flight status page for this flight to view local times or setup timezone preferences in your user account.

Time Position Orientation Groundspeed Altitude Reporting Facility
EDT Latitude Longitude Course Direction KTS MPH feet Rate Location/Type
Sat 02:01:21 PM 39.8667 -75.2833 307° West 159 183 900  Level Philadelphia TRACON
Sat 02:02:22 PM 39.8500 -75.3500 252° West 196 226 2,000 1,438 Climbing Philadelphia TRACON
Sat 02:03:00 PM 40.1036 -75.4536 323° Northwest  Level FlightAware Approximate
Sat 02:03:22 PM 39.8333 -75.4333 255° West 265 305 3,800  Level Philadelphia TRACON
Sat 02:04:00 PM 40.1854 -75.5354 323° Northwest  Level FlightAware Approximate
Sat 02:04:22 PM 39.8500 -75.5167 285° West 275 316 6,500  Level Philadelphia TRACON
Sat 02:05:00 PM 40.2614 -75.6171 311° West  Level FlightAware Approximate
Sat 02:05:28 PM 39.9500 -75.5167 360° North 287 330 9,400  Level Philadelphia TRACON
Sat 02:06:00 PM 40.3281 -75.7200 307° West  Level FlightAware Approximate
Sat 02:07:04 PM 40.0817 -75.5431 351° North 331 381 12,600  Level New York Center
Sat 02:08:03 PM 40.1644 -75.5542 354° North 331 381 13,300 1,450 Climbing New York Center
Sat 02:09:04 PM 40.2561 -75.6094 335° Northwest 330 380 15,500 1,835 Climbing New York Center
Sat 02:10:04 PM 40.3169 -75.7008 311° West 330 380 17,000 843 Climbing New York Center
Sat 02:11:05 PM 40.3717 -75.7864 310° West 330 380 17,200 496 Climbing New York Center
Sat 02:12:05 PM 40.4322 -75.8808 310° West 341 392 18,000 1,017 Climbing New York Center
Sat 02:13:03 PM 40.4561 -75.9997 285° West 341 392 19,200 1,475 Climbing New York Center
Sat 02:14:03 PM 40.4756 -76.1242 282° West 341 392 20,900 1,650 Climbing New York Center
Sat 02:15:03 PM 40.4969 -76.2486 283° West 346 398 22,500 1,438 Climbing New York Center
Sat 02:16:04 PM 40.5158 -76.3783 281° West 356 410 23,800 1,328 Climbing New York Center
Sat 02:17:05 PM 40.5364 -76.5139 281° West 366 421 25,200 1,240 Climbing New York Center
Sat 02:18:05 PM 40.5633 -76.6447 285° West 372 428 26,300 1,068 Climbing New York Center
Sat 02:19:03 PM 40.6003 -76.7819 290° West 386 444 27,300 958 Climbing New York Center
Sat 02:20:04 PM 40.6350 -76.9161 289° West 391 450 28,200 900 Climbing New York Center
Sat 02:21:03 PM 40.6717 -77.0536 289° West 391 450 29,100 807 Climbing New York Center
Sat 02:22:03 PM 40.7097 -77.1967 289° West 397 457 29,800 450 Climbing New York Center
Sat 02:23:03 PM 40.7492 -77.3539 288° West 407 468 30,000 100 Climbing New York Center
Sat 02:24:03 PM 40.7856 -77.4833 290° West 414 476 30,000  Level New York Center
Sat 02:25:36 PM 40.8442 -77.7147 289° West 434 499 30,000  Level Cleveland Center
Sat 02:26:36 PM 40.8811 -77.8586 289° West 434 499 30,000  Level Cleveland Center
Sat 02:27:36 PM 40.9158 -78.0083 287° West 434 499 30,000  Level Cleveland Center
Sat 02:28:36 PM 40.9358 -78.1589 280° West 428 493 30,000  Level Cleveland Center
Sat 02:29:36 PM 40.9578 -78.3119 281° West 428 493 30,000  Level Cleveland Center
Sat 02:30:36 PM 40.9753 -78.4628 279° West 428 493 30,000  Level Cleveland Center
Sat 02:31:36 PM 40.9944 -78.6133 280° West 428 493 30,000  Level Cleveland Center
Sat 02:32:36 PM 41.0117 -78.7669 279° West 428 493 30,000  Level Cleveland Center
Sat 02:33:36 PM 41.0286 -78.9150 279° West 422 486 30,000  Level Cleveland Center
Sat 02:34:36 PM 41.0453 -79.0661 278° West 422 486 30,000  Level Cleveland Center
Sat 02:35:36 PM 41.0639 -79.2172 279° West 422 486 30,000  Level Cleveland Center
Sat 02:36:36 PM 41.0800 -79.3683 278° West 422 486 30,000  Level Cleveland Center
Sat 02:37:36 PM 41.0983 -79.5167 279° West 422 486 30,000  Level Cleveland Center
Sat 02:38:36 PM 41.1142 -79.6653 278° West 422 486 30,000  Level Cleveland Center
Sat 02:39:36 PM 41.1300 -79.8361 277° West 422 486 30,000  Level Cleveland Center
Sat 02:40:36 PM 41.1433 -79.9683 278° West 422 486 30,000  Level Cleveland Center
Sat 02:41:36 PM 41.1628 -80.1197 280° West 422 486 30,000  Level Cleveland Center
Sat 02:42:36 PM 41.1778 -80.2686 278° West 422 486 30,000  Level Cleveland Center
Sat 02:43:36 PM 41.1947 -80.4369 278° West 422 486 30,000  Level Cleveland Center
Sat 02:44:36 PM 41.2075 -80.5694 277° West 422 486 30,000  Level Cleveland Center
Sat 02:45:36 PM 41.2219 -80.7211 277° West 422 486 30,000  Level Cleveland Center
Sat 02:46:36 PM 41.2383 -80.8731 278° West 422 486 30,000  Level Cleveland Center
Sat 02:47:36 PM 41.2525 -81.0222 277° West 422 486 30,000  Level Cleveland Center
Sat 02:48:36 PM 41.2850 -81.1717 286° West 417 480 30,000  Level Cleveland Center
Sat 02:49:36 PM 41.3344 -81.3103 295° West 417 480 30,000  Level Cleveland Center
Sat 02:50:36 PM 41.3917 -81.4550 298° West 412 474 30,000  Level Cleveland Center
Sat 02:51:36 PM 41.4344 -81.5775 295° West 402 463 30,000  Level Cleveland Center
Sat 02:52:36 PM 41.4853 -81.7167 296° West 408 470 30,000  Level Cleveland Center
Sat 02:53:36 PM 41.5422 -81.8481 300° West 408 470 30,000  Level Cleveland Center
Sat 02:54:36 PM 41.6139 -81.9689 308° West 414 476 30,000  Level Cleveland Center
Sat 02:55:36 PM 41.6875 -82.0903 309° West 419 482 30,000  Level Cleveland Center
Sat 02:56:36 PM 41.7586 -82.2089 309° West 419 482 30,000  Level Cleveland Center
Sat 02:57:36 PM 41.8319 -82.3278 310° West 419 482 30,000  Level Cleveland Center
Sat 02:58:36 PM 41.8989 -82.4522 306° West 419 482 30,000  Level Cleveland Center
Sat 02:59:36 PM 41.9739 -82.5800 308° West 419 482 30,000  Level Cleveland Center
Sat 03:00:36 PM 42.0236 -82.7158 296° West 419 482 30,000  Level Cleveland Center
Sat 03:01:36 PM 42.0583 -82.8569 288° West 402 463 30,000  Level Cleveland Center
Sat 03:02:36 PM 42.0908 -83.0008 287° West 397 457 30,000  Level Cleveland Center
Sat 03:03:36 PM 42.1253 -83.1419 288° West 397 457 30,000  Level Cleveland Center
Sat 03:04:36 PM 42.1611 -83.3058 286° West 410 472 30,000  Level Cleveland Center
Sat 03:05:36 PM 42.1972 -83.4533 288° West 410 472 30,000  Level Cleveland Center
Sat 03:06:36 PM 42.2289 -83.6006 286° West 410 472 30,000  Level Cleveland Center
Sat 03:07:36 PM 42.2625 -83.7453 287° West 420 483 30,000  Level Cleveland Center
Sat 03:08:36 PM 42.2958 -83.8872 288° West 407 468 30,000  Level Cleveland Center
Sat 03:09:36 PM 42.3294 -84.0294 288° West 402 463 30,000  Level Cleveland Center
Sat 03:10:36 PM 42.3603 -84.1747 286° West 402 463 30,000  Level Cleveland Center
Sat 03:12:07 PM 42.4094 -84.3917 287° West 404 465 30,000  Level Chicago Center
Sat 03:13:09 PM 42.4450 -84.5339 289° West 402 463 30,000  Level Chicago Center
Sat 03:14:11 PM 42.4950 -84.6739 296° West 413 475 30,000  Level Chicago Center
Sat 03:15:13 PM 42.5458 -84.8136 296° West 415 478 30,000  Level Chicago Center
Sat 03:16:15 PM 42.5953 -84.9544 296° West 415 478 30,000  Level Chicago Center
Sat 03:17:17 PM 42.6453 -85.0964 296° West 417 480 30,000  Level Chicago Center
Sat 03:18:19 PM 42.7053 -85.2664 296° West 417 480 30,000  Level Chicago Center
Sat 03:19:21 PM 42.7547 -85.4081 295° West 416 479 30,000  Level Chicago Center
Sat 03:20:23 PM 42.7936 -85.5547 290° West 414 476 30,000  Level Chicago Center
Sat 03:21:25 PM 42.8133 -85.7064 280° West 407 468 30,000  Level Chicago Center
Sat 03:22:27 PM 42.8331 -85.8594 280° West 408 470 30,000  Level Chicago Center
Sat 03:23:28 PM 42.8522 -86.0131 280° West 405 466 30,000  Level Chicago Center
Sat 03:24:30 PM 42.8717 -86.1656 280° West 402 463 30,000  Level Chicago Center
Sat 03:25:32 PM 42.8900 -86.3178 279° West 403 464 30,000  Level Chicago Center
Sat 03:26:34 PM 42.9125 -86.4983 280° West 404 465 30,000  Level Chicago Center
Sat 03:27:36 PM 42.9317 -86.6472 280° West 401 461 30,000  Level Chicago Center
Sat 03:28:38 PM 42.9494 -86.7983 279° West 403 464 30,000  Level Chicago Center
Sat 03:29:40 PM 42.9681 -86.9503 280° West 405 466 30,000  Level Chicago Center
Sat 03:30:42 PM 42.9858 -87.1019 279° West 406 467 30,000  Level Chicago Center
Sat 03:31:44 PM 43.0028 -87.2544 279° West 407 468 30,000  Level Chicago Center
Sat 03:32:46 PM 43.0217 -87.4178 279° West 407 468 30,000  Level Chicago Center
Sat 03:33:48 PM 43.0386 -87.5700 279° West 405 466 30,000  Level Chicago Center
Sat 03:34:50 PM 43.0597 -87.7486 279° West 407 468 30,000  Level Chicago Center
Sat 03:35:52 PM 43.1186 -87.8878 300° West 423 487 30,000  Level Chicago Center
Sat 03:36:54 PM 43.1833 -88.0203 304° West 421 484 30,000 -435 Level Chicago Center
Sat 03:37:56 PM 43.2467 -88.1553 303° West 418 481 29,100 -968 Descending Chicago Center
Sat 03:38:58 PM 43.3097 -88.2883 303° West 416 479 28,000 -532 Descending Chicago Center
Sat 03:40:00 PM 43.3719 -88.4203 303° West 410 472 28,000  Level Chicago Center
Sat 03:41:02 PM 43.4411 -88.5661 303° West 421 484 28,000  Level Chicago Center
Sat 03:42:04 PM 43.5017 -88.7000 302° West 417 480 28,000  Level Chicago Center
Sat 03:43:06 PM 43.5736 -88.8542 303° West 410 472 28,000  Level Chicago Center
Sat 03:44:08 PM 43.6336 -88.9869 302° West 409 471 28,000  Level Chicago Center
Sat 03:45:10 PM 43.6964 -89.1222 303° West 417 480 28,000  Level Chicago Center
Sat 03:46:11 PM 43.7575 -89.2578 302° West 417 480 28,000  Level Chicago Center
Sat 03:47:13 PM 43.8192 -89.3925 302° West 416 479 28,000  Level Chicago Center
Sat 03:48:15 PM 43.8808 -89.5267 303° West 414 476 28,000  Level Chicago Center
Sat 03:49:17 PM 43.9519 -89.6856 302° West 415 478 28,000  Level Chicago Center
Sat 03:50:19 PM 44.0128 -89.8214 302° West 415 478 28,000  Level Chicago Center
Sat 03:51:21 PM 44.0731 -89.9569 302° West 414 476 28,000  Level Chicago Center
Sat 03:52:23 PM 44.1433 -90.0822 308° West 410 472 28,000  Level Chicago Center
Sat 03:53:25 PM 44.2128 -90.2086 308° West 411 473 28,000  Level Chicago Center
Sat 03:54:27 PM 44.2869 -90.3428 308° West 408 470 28,000  Level Chicago Center
Sat 03:55:29 PM 44.3544 -90.4656 308° West 404 465 28,000 -194 Level Chicago Center
Sat 03:56:31 PM 44.4233 -90.5919 307° West 411 473 27,600 -1,128 Descending Chicago Center
Sat 03:57:42 PM 44.5100 -90.7514 307° West 401 461 25,500 -1,669 Descending Minneapolis Center
Sat 03:58:44 PM 44.5747 -90.8714 307° West 388 447 23,900 -1,463 Descending Minneapolis Center
Sat 03:59:45 PM 44.6347 -90.9817 307° West 378 435 22,500 -1,463 Descending Minneapolis Center
Sat 04:00:47 PM 44.6969 -91.0967 307° West 375 432 20,900 -1,597 Descending Minneapolis Center
Sat 04:01:49 PM 44.7672 -91.2331 306° West 365 420 19,200 -1,610 Descending Minneapolis Center
Sat 04:02:50 PM 44.8122 -91.3714 295° West 393 452 17,600 -1,512 Descending Minneapolis Center
Sat 04:03:52 PM 44.8508 -91.5125 291° West 393 452 16,100 -1,500 Descending Minneapolis Center
Sat 04:04:54 PM 44.8839 -91.6486 289° West 378 435 14,500 -1,463 Descending Minneapolis Center
Sat 04:05:55 PM 44.9206 -91.7825 291° West 370 426 13,100 -1,415 Descending Minneapolis Center
Sat 04:06:57 PM 44.9542 -91.9131 290° West 357 411 11,600 -968 Descending Minneapolis Center
Sat 04:07:59 PM 44.9919 -92.0625 290° West 340 391 11,100 -244 Descending Minneapolis Center
Sat 04:09:00 PM 45.0233 -92.1892 289° West 343 395 11,100  Level Minneapolis Center
Sat 04:10:02 PM 45.0447 -92.3153 284° West 337 388 11,100 -48 Level Minneapolis Center
Sat 04:11:04 PM 45.0250 -92.4461 258° West 340 391 11,000 -49 Descending Minneapolis Center
Sat 04:12:05 PM 45.0044 -92.5747 257° West 337 388 11,000  Level Minneapolis Center
Sat 04:13:07 PM 44.9836 -92.7036 257° West 337 388 11,000  Level Minneapolis Center
Sat 04:14:08 PM 44.9675 -92.8058 257° West 337 388 11,000 -98 Level Minneapolis Center
Sat 04:15:10 PM 44.9389 -92.9814 257° West 331 381 10,800 -532 Descending Minneapolis Center
Sat 04:16:12 PM 44.9369 -93.0836 268° West 276 318 9,900 -1,548 Descending Minneapolis Center
Sat 04:17:14 PM 44.9806 -93.1697 306° West 273 314 7,600 -1,902 Descending Minneapolis Center
Sat 04:18:15 PM 45.0247 -93.2511 308° West 265 305 6,000 -1,463 Descending Minneapolis Center
Sat 04:19:17 PM 45.0531 -93.3269 298° West 229 264 4,600 -1,016 Descending Minneapolis Center
Sat 04:20:19 PM 45.0056 -93.3553 203° Southwest 181 208 3,900 -677 Descending Minneapolis Center

Login

Don't have an account? Register now (free) for customized features, flight alerts, and more!